createdAt,value
2019-06-27T00:01:36.439Z,0.70
2019-06-27T00:04:02.582Z,0.80
2019-06-27T00:06:28.616Z,0.53
2019-06-27T00:08:54.699Z,0.50
2019-06-27T00:11:20.750Z,0.60
2019-06-27T00:13:46.675Z,0.60
2019-06-27T00:16:12.776Z,0.70
2019-06-27T00:18:38.766Z,0.50
2019-06-27T00:21:04.758Z,0.60
2019-06-27T00:23:30.791Z,0.53
2019-06-27T00:25:56.716Z,0.53
2019-06-27T00:28:22.827Z,0.70
2019-06-27T00:30:48.937Z,0.57
2019-06-27T00:33:15.094Z,0.60
2019-06-27T00:35:41.343Z,0.60
2019-06-27T00:38:07.439Z,0.50
2019-06-27T00:40:33.497Z,0.60
2019-06-27T00:42:59.406Z,0.60
2019-06-27T00:45:25.418Z,0.90
2019-06-27T00:47:51.482Z,0.70
2019-06-27T00:50:17.702Z,0.63
2019-06-27T00:52:44.998Z,0.70
2019-06-27T00:55:11.145Z,0.60
2019-06-27T00:57:37.149Z,0.80
2019-06-27T01:00:05.753Z,0.73
2019-06-27T01:02:31.730Z,0.60
2019-06-27T01:04:57.658Z,0.60
2019-06-27T01:07:23.679Z,0.60
2019-06-27T01:09:49.684Z,0.70
2019-06-27T01:12:15.617Z,0.97
2019-06-27T01:14:41.760Z,0.90
2019-06-27T01:17:08.084Z,0.57
2019-06-27T01:19:34.007Z,0.47
2019-06-27T01:22:00.017Z,0.67
2019-06-27T01:24:26.051Z,0.60
2019-06-27T01:26:52.076Z,0.63
2019-06-27T01:29:18.195Z,0.83
2019-06-27T01:31:44.114Z,0.60
2019-06-27T01:34:10.050Z,0.70
2019-06-27T01:36:36.119Z,0.70
2019-06-27T01:39:02.335Z,0.80
2019-06-27T01:41:28.371Z,0.73
2019-06-27T01:43:54.514Z,0.73
2019-06-27T01:46:20.423Z,0.73
2019-06-27T01:48:46.333Z,0.60
2019-06-27T01:51:12.661Z,0.53
2019-06-27T01:53:38.776Z,0.70
2019-06-27T01:56:04.883Z,0.80
2019-06-27T01:58:30.928Z,0.60
2019-06-27T02:00:56.926Z,0.60
2019-06-27T02:03:22.954Z,0.60
2019-06-27T02:05:49.185Z,0.70
2019-06-27T02:08:15.094Z,0.70
2019-06-27T02:10:41.268Z,0.67
2019-06-27T02:13:07.437Z,0.63
2019-06-27T02:15:33.468Z,0.80
2019-06-27T02:17:59.582Z,0.40
2019-06-27T02:20:25.727Z,0.60
2019-06-27T02:22:51.737Z,0.60
2019-06-27T02:25:18.154Z,0.60
2019-06-27T02:27:44.403Z,0.60
2019-06-27T02:30:11.323Z,0.50
2019-06-27T02:32:37.318Z,0.60
2019-06-27T02:35:06.825Z,0.70
2019-06-27T02:37:32.735Z,0.50
2019-06-27T02:39:58.629Z,0.50
2019-06-27T02:42:24.794Z,0.57
2019-06-27T02:44:50.813Z,0.50
2019-06-27T02:47:16.709Z,0.63
2019-06-27T02:49:42.819Z,0.60
2019-06-27T02:52:08.841Z,0.50
2019-06-27T02:54:34.839Z,0.53
2019-06-27T02:57:01.077Z,0.43
2019-06-27T02:59:26.993Z,0.53
2019-06-27T03:01:53.008Z,0.80
2019-06-27T03:04:19.033Z,0.47
2019-06-27T03:06:45.052Z,0.50
2019-06-27T03:09:11.196Z,0.80
2019-06-27T03:11:37.478Z,0.40
2019-06-27T03:14:03.618Z,0.40
2019-06-27T03:16:29.654Z,0.40
2019-06-27T03:18:55.784Z,0.50
2019-06-27T03:21:21.808Z,0.50
2019-06-27T03:23:48.000Z,0.40
2019-06-27T03:26:14.120Z,0.50
2019-06-27T03:28:51.925Z,0.47
2019-06-27T03:31:07.863Z,0.47
2019-06-27T03:33:33.978Z,0.50
2019-06-27T03:35:59.893Z,0.40
2019-06-27T03:38:25.946Z,0.40
2019-06-27T03:40:52.061Z,0.20
2019-06-27T03:43:17.969Z,0.43
2019-06-27T03:45:43.907Z,0.30
2019-06-27T03:48:10.213Z,0.27
2019-06-27T03:50:36.105Z,0.27
2019-06-27T03:53:02.181Z,0.30
2019-06-27T03:55:28.380Z,0.30
2019-06-27T03:57:54.312Z,0.30
2019-06-27T04:00:24.070Z,0.37
2019-06-27T04:02:50.288Z,0.40
2019-06-27T04:05:16.202Z,0.30
2019-06-27T04:07:42.149Z,0.30
2019-06-27T04:10:08.446Z,0.30
2019-06-27T04:12:34.688Z,0.30
2019-06-27T04:15:00.755Z,0.30
2019-06-27T04:17:26.956Z,0.30
2019-06-27T04:19:52.959Z,0.27
2019-06-27T04:22:19.098Z,0.20
2019-06-27T04:24:45.410Z,0.30
2019-06-27T04:27:11.421Z,0.20
2019-06-27T04:29:37.467Z,0.30
2019-06-27T04:32:03.599Z,0.30
2019-06-27T04:34:29.615Z,0.50
2019-06-27T04:36:55.648Z,0.40
2019-06-27T04:39:21.789Z,0.20
2019-06-27T04:41:47.710Z,0.20
2019-06-27T04:44:13.843Z,0.17
2019-06-27T04:46:39.833Z,0.13
2019-06-27T04:49:05.752Z,0.30
2019-06-27T04:51:31.868Z,0.40
2019-06-27T04:53:58.027Z,0.33
2019-06-27T04:56:23.964Z,0.20
2019-06-27T04:58:50.014Z,0.20
2019-06-27T05:01:16.031Z,0.20
2019-06-27T05:03:41.953Z,0.33
2019-06-27T05:06:07.940Z,0.30
2019-06-27T05:08:34.056Z,0.20
2019-06-27T05:11:00.046Z,0.23
2019-06-27T05:13:26.496Z,0.20
2019-06-27T05:15:52.851Z,0.30
2019-06-27T05:18:18.778Z,0.30
2019-06-27T05:20:44.705Z,0.33
2019-06-27T05:23:10.787Z,0.37
2019-06-27T05:25:36.703Z,0.30
2019-06-27T05:28:02.730Z,0.30
2019-06-27T05:30:28.768Z,0.20
2019-06-27T05:32:54.763Z,0.20
2019-06-27T05:35:20.700Z,0.20
2019-06-27T05:37:46.901Z,0.20
2019-06-27T05:40:13.125Z,0.20
2019-06-27T05:42:39.078Z,0.30
2019-06-27T05:45:05.500Z,0.40
2019-06-27T05:47:31.406Z,0.30
2019-06-27T05:49:57.469Z,0.20
2019-06-27T05:52:23.547Z,0.33
2019-06-27T05:54:49.479Z,0.20
2019-06-27T05:57:15.491Z,0.30
2019-06-27T05:59:41.529Z,0.20
2019-06-27T06:02:07.490Z,0.30
2019-06-27T06:04:33.505Z,0.40
2019-06-27T06:06:59.733Z,0.10
2019-06-27T06:09:25.681Z,0.20
2019-06-27T06:11:51.588Z,0.17
2019-06-27T06:14:17.717Z,0.20
2019-06-27T06:16:43.634Z,0.20
2019-06-27T06:19:09.600Z,0.20
2019-06-27T06:21:35.702Z,0.13
2019-06-27T06:24:01.581Z,0.10
2019-06-27T06:26:27.520Z,0.10
2019-06-27T06:28:53.503Z,0.10
2019-06-27T06:31:19.415Z,0.37
2019-06-27T06:33:45.454Z,0.10
2019-06-27T06:36:11.538Z,0.10
2019-06-27T06:38:37.429Z,0.13
2019-06-27T06:41:03.552Z,0.20
2019-06-27T06:43:29.765Z,0.40
2019-06-27T06:45:55.846Z,0.10
2019-06-27T06:48:21.897Z,0.10
2019-06-27T06:50:48.010Z,0.00
2019-06-27T06:53:14.012Z,0.17
2019-06-27T06:55:42.679Z,0.00
2019-06-27T06:58:08.082Z,0.10
2019-06-27T07:00:34.067Z,0.07
2019-06-27T07:03:00.141Z,0.10
2019-06-27T07:05:26.270Z,0.10
2019-06-27T07:07:52.249Z,0.10
2019-06-27T07:10:20.282Z,0.07
2019-06-27T07:12:46.735Z,0.10
2019-06-27T07:15:13.011Z,0.10
2019-06-27T07:17:39.122Z,0.10
2019-06-27T07:20:05.728Z,0.07
2019-06-27T07:22:31.775Z,0.10
2019-06-27T07:24:57.798Z,0.00
2019-06-27T07:27:23.801Z,0.10
2019-06-27T07:29:49.821Z,0.10
2019-06-27T07:32:15.873Z,0.10
2019-06-27T07:34:41.887Z,0.17
2019-06-27T07:37:07.783Z,0.10
2019-06-27T07:39:33.728Z,0.97
2019-06-27T07:41:59.943Z,0.10
2019-06-27T07:44:25.841Z,0.10
2019-06-27T07:46:51.782Z,0.20
2019-06-27T07:49:17.873Z,0.10
2019-06-27T07:51:43.872Z,0.10
2019-06-27T07:54:10.028Z,0.20
2019-06-27T07:56:36.056Z,0.03
2019-06-27T07:59:01.947Z,0.10
2019-06-27T08:01:34.909Z,0.10
2019-06-27T08:03:55.842Z,0.00
2019-06-27T08:06:21.832Z,0.60
2019-06-27T08:08:47.876Z,0.00
2019-06-27T08:11:14.197Z,0.10
2019-06-27T08:13:40.119Z,0.10
2019-06-27T08:16:06.092Z,0.20
2019-06-27T08:18:32.304Z,0.10
2019-06-27T08:20:58.324Z,0.10
2019-06-27T08:23:40.262Z,0.10
2019-06-27T08:25:52.362Z,0.30
2019-06-27T08:28:18.385Z,0.23
2019-06-27T08:30:44.328Z,0.20
2019-06-27T08:33:10.512Z,0.23
2019-06-27T08:35:36.435Z,0.10
2019-06-27T08:38:02.514Z,0.00
2019-06-27T08:40:28.589Z,0.00
2019-06-27T08:42:54.601Z,0.10
2019-06-27T08:45:21.535Z,0.10
2019-06-27T08:47:47.662Z,0.00
2019-06-27T08:50:15.685Z,0.20
2019-06-27T08:52:41.681Z,0.20
2019-06-27T08:55:08.273Z,0.10
2019-06-27T08:57:34.409Z,0.10
2019-06-27T09:00:00.582Z,0.00
2019-06-27T09:02:26.969Z,0.00
2019-06-27T09:04:52.997Z,0.10
2019-06-27T09:07:18.895Z,0.20
2019-06-27T09:09:44.984Z,0.10
2019-06-27T09:12:10.892Z,0.10
2019-06-27T09:14:37.032Z,0.10
2019-06-27T09:17:03.282Z,0.10
2019-06-27T09:19:29.168Z,0.07
2019-06-27T09:21:56.361Z,0.13
2019-06-27T09:24:22.387Z,0.10
2019-06-27T09:26:48.302Z,0.10
2019-06-27T09:29:14.346Z,0.00
2019-06-27T09:31:40.450Z,0.00
2019-06-27T09:34:06.466Z,0.10
2019-06-27T09:36:32.493Z,0.17
2019-06-27T09:38:58.608Z,0.20
2019-06-27T09:41:24.793Z,0.10
2019-06-27T09:43:50.937Z,0.20
2019-06-27T09:46:17.025Z,0.10
2019-06-27T09:48:43.025Z,0.00
2019-06-27T09:51:08.981Z,0.10
2019-06-27T09:53:35.050Z,0.13
2019-06-27T09:56:01.271Z,0.10
2019-06-27T09:58:27.329Z,0.10
2019-06-27T10:00:53.417Z,0.20
2019-06-27T10:03:19.517Z,0.10
2019-06-27T10:05:45.566Z,0.10
2019-06-27T10:08:11.765Z,0.30
2019-06-27T10:10:37.766Z,0.40
2019-06-27T10:13:03.811Z,0.20
2019-06-27T10:15:29.887Z,0.20
2019-06-27T10:17:55.794Z,0.10
2019-06-27T10:20:22.288Z,0.00
2019-06-27T10:22:48.434Z,0.10
2019-06-27T10:25:14.652Z,0.30
2019-06-27T10:27:40.676Z,0.10
2019-06-27T10:30:07.344Z,0.10
2019-06-27T10:32:33.355Z,0.00
2019-06-27T10:34:59.889Z,0.10
2019-06-27T10:37:26.003Z,0.10
2019-06-27T10:39:51.893Z,0.20
2019-06-27T10:42:17.968Z,0.10
2019-06-27T10:44:44.014Z,0.13
2019-06-27T10:47:09.910Z,0.10
2019-06-27T10:49:35.869Z,0.20
2019-06-27T10:52:02.151Z,0.10
2019-06-27T10:54:28.150Z,0.10
2019-06-27T10:56:54.063Z,0.10
2019-06-27T10:59:20.196Z,0.10
2019-06-27T11:01:46.191Z,0.10
2019-06-27T11:04:12.113Z,0.20
2019-06-27T11:06:38.373Z,0.10
2019-06-27T11:09:04.669Z,0.60
2019-06-27T11:11:30.628Z,0.20
2019-06-27T11:13:59.320Z,0.10
2019-06-27T11:16:24.755Z,0.00
2019-06-27T11:18:50.684Z,0.10
2019-06-27T11:21:16.996Z,0.10
2019-06-27T11:23:42.895Z,0.07
2019-06-27T11:26:09.624Z,0.10
2019-06-27T11:28:35.826Z,0.00
2019-06-27T11:31:01.829Z,0.20
2019-06-27T11:33:32.560Z,0.00
2019-06-27T11:35:55.793Z,0.10
2019-06-27T11:38:21.687Z,0.00
2019-06-27T11:40:47.708Z,0.00
2019-06-27T11:43:13.816Z,0.00
2019-06-27T11:45:39.831Z,0.10
2019-06-27T11:48:05.977Z,0.10
2019-06-27T11:50:32.158Z,0.30
2019-06-27T11:52:58.285Z,0.00
2019-06-27T11:55:24.466Z,0.10
2019-06-27T11:57:50.412Z,0.10
2019-06-27T12:00:17.388Z,0.10
2019-06-27T12:02:43.598Z,0.20
2019-06-27T12:05:09.797Z,0.10
2019-06-27T12:07:35.833Z,0.10
2019-06-27T12:10:03.348Z,0.10
2019-06-27T12:12:29.445Z,0.10
2019-06-27T12:14:55.476Z,0.10
2019-06-27T12:17:21.488Z,0.20
2019-06-27T12:19:47.559Z,0.20
2019-06-27T12:22:13.527Z,0.10
2019-06-27T12:24:39.789Z,0.10
2019-06-27T12:27:05.751Z,0.10
2019-06-27T12:29:31.753Z,0.10
2019-06-27T12:31:57.671Z,0.10
2019-06-27T12:34:23.780Z,0.10
2019-06-27T12:36:49.742Z,0.00
2019-06-27T12:39:15.874Z,0.10
2019-06-27T12:41:42.012Z,0.30
2019-06-27T12:44:08.073Z,0.00
2019-06-27T12:46:34.236Z,0.20
2019-06-27T12:49:00.355Z,0.00
2019-06-27T12:51:26.346Z,0.10
2019-06-27T12:53:55.724Z,0.10
2019-06-27T12:56:20.282Z,0.20
2019-06-27T12:58:46.405Z,0.20
2019-06-27T13:01:12.537Z,0.63
2019-06-27T13:03:38.656Z,0.20
2019-06-27T13:06:04.743Z,0.20
2019-06-27T13:08:30.661Z,0.17
2019-06-27T13:10:56.908Z,0.10
2019-06-27T13:13:23.019Z,0.00
2019-06-27T13:15:49.015Z,0.20
2019-06-27T13:18:15.130Z,0.10
2019-06-27T13:20:56.565Z,0.10
2019-06-27T13:23:08.942Z,0.30
2019-06-27T13:25:35.076Z,0.10
2019-06-27T13:28:01.119Z,0.20
2019-06-27T13:30:27.356Z,0.10
2019-06-27T13:32:53.432Z,0.20
2019-06-27T13:35:19.337Z,0.27
2019-06-27T13:37:45.298Z,0.20
2019-06-27T13:40:11.992Z,0.20
2019-06-27T13:42:38.632Z,0.20
2019-06-27T13:45:06.019Z,0.10
2019-06-27T13:47:32.081Z,0.10
2019-06-27T13:49:58.182Z,0.10
2019-06-27T13:52:24.280Z,0.10
2019-06-27T13:54:50.476Z,0.20
2019-06-27T13:57:16.495Z,0.30
2019-06-27T13:59:42.392Z,0.03
2019-06-27T14:02:08.448Z,0.10
2019-06-27T14:04:34.597Z,0.10
2019-06-27T14:07:00.691Z,0.13
2019-06-27T14:09:26.690Z,0.20
2019-06-27T14:11:52.684Z,0.10
2019-06-27T14:14:18.661Z,0.17
2019-06-27T14:16:44.764Z,0.20
2019-06-27T14:19:10.722Z,0.10
2019-06-27T14:21:36.603Z,0.10
2019-06-27T14:24:02.972Z,0.10
2019-06-27T14:26:28.886Z,0.10
2019-06-27T14:28:54.904Z,0.13
2019-06-27T14:31:21.194Z,0.20
2019-06-27T14:33:47.088Z,0.10
2019-06-27T14:36:13.024Z,0.20
2019-06-27T14:38:39.317Z,0.10
2019-06-27T14:41:05.414Z,0.27
2019-06-27T14:43:31.487Z,0.20
2019-06-27T14:45:57.590Z,0.20
2019-06-27T14:48:23.466Z,0.10
2019-06-27T14:50:49.362Z,0.00
2019-06-27T14:53:15.471Z,0.10
2019-06-27T14:55:41.404Z,0.20
2019-06-27T14:58:07.450Z,0.20
2019-06-27T15:00:33.651Z,0.10
2019-06-27T15:02:59.559Z,0.10
2019-06-27T15:05:32.469Z,0.10
2019-06-27T15:07:53.638Z,0.13
2019-06-27T15:10:19.954Z,0.10
2019-06-27T15:12:56.460Z,0.20
2019-06-27T15:15:14.869Z,0.10
2019-06-27T15:17:40.949Z,0.10
2019-06-27T15:20:06.890Z,0.10
2019-06-27T15:22:33.349Z,0.13
2019-06-27T15:25:00.773Z,0.10
2019-06-27T15:27:26.919Z,0.10
2019-06-27T15:29:52.984Z,0.00
2019-06-27T15:32:18.878Z,0.17
2019-06-27T15:34:44.799Z,0.30
2019-06-27T15:37:10.924Z,0.17
2019-06-27T15:39:36.917Z,0.17
2019-06-27T15:42:03.147Z,0.10
2019-06-27T15:44:29.420Z,0.30
2019-06-27T15:46:55.305Z,0.27
2019-06-27T15:49:21.219Z,0.20
2019-06-27T15:51:47.399Z,0.30
2019-06-27T15:54:13.342Z,0.27
2019-06-27T15:56:39.300Z,0.40
2019-06-27T15:59:05.389Z,0.20
2019-06-27T16:01:31.291Z,0.10
2019-06-27T16:03:57.281Z,0.20
2019-06-27T16:06:23.327Z,0.20
2019-06-27T16:08:49.383Z,0.30
2019-06-27T16:11:15.465Z,0.30
2019-06-27T16:13:41.671Z,0.10
2019-06-27T16:16:07.703Z,0.33
2019-06-27T16:18:33.586Z,0.10
2019-06-27T16:20:59.751Z,0.27
2019-06-27T16:23:25.649Z,0.20
2019-06-27T16:25:51.596Z,0.20
2019-06-27T16:28:17.824Z,0.40
2019-06-27T16:30:43.844Z,0.20
2019-06-27T16:33:09.742Z,0.00
2019-06-27T16:35:37.970Z,0.20
2019-06-27T16:38:04.087Z,0.10
2019-06-27T16:40:29.984Z,0.20
2019-06-27T16:42:56.199Z,0.13
2019-06-27T16:45:22.331Z,0.20
2019-06-27T16:47:48.240Z,0.07
2019-06-27T16:50:14.625Z,0.20
2019-06-27T16:52:40.750Z,0.30
2019-06-27T16:55:07.051Z,0.30
2019-06-27T16:57:33.239Z,0.27
2019-06-27T16:59:59.221Z,0.10
2019-06-27T17:02:25.146Z,0.23
2019-06-27T17:04:51.168Z,0.10
2019-06-27T17:07:17.252Z,0.20
2019-06-27T17:09:44.139Z,0.30
2019-06-27T17:12:10.146Z,0.13
2019-06-27T17:14:36.072Z,0.40
2019-06-27T17:17:02.109Z,0.20
2019-06-27T17:19:28.150Z,0.20
2019-06-27T17:21:54.325Z,0.10
2019-06-27T17:24:20.461Z,0.20
2019-06-27T17:26:46.847Z,0.10
2019-06-27T17:29:12.835Z,0.20
2019-06-27T17:31:38.753Z,0.10
2019-06-27T17:34:04.941Z,0.10
2019-06-27T17:36:31.036Z,0.20
2019-06-27T17:38:56.963Z,0.23
2019-06-27T17:41:23.126Z,0.10
2019-06-27T17:43:49.018Z,0.17
2019-06-27T17:46:14.904Z,0.20
2019-06-27T17:48:41.150Z,0.20
2019-06-27T17:51:08.142Z,0.20
2019-06-27T17:53:34.159Z,0.20
2019-06-27T17:56:00.343Z,0.20
2019-06-27T17:58:26.256Z,0.20
2019-06-27T18:00:52.286Z,0.13
2019-06-27T18:03:18.468Z,0.20
2019-06-27T18:05:44.380Z,0.13
2019-06-27T18:08:10.290Z,0.20
2019-06-27T18:10:36.539Z,0.10
2019-06-27T18:13:02.659Z,0.30
2019-06-27T18:15:28.754Z,0.20
2019-06-27T18:17:54.878Z,0.17
2019-06-27T18:20:20.862Z,0.17
2019-06-27T18:22:46.787Z,0.10
2019-06-27T18:25:13.010Z,0.20
2019-06-27T18:27:39.004Z,0.17
2019-06-27T18:30:05.672Z,0.20
2019-06-27T18:32:31.810Z,0.20
2019-06-27T18:34:57.703Z,0.20
2019-06-27T18:37:29.583Z,0.10
2019-06-27T18:39:51.665Z,0.20
2019-06-27T18:42:17.553Z,0.20
2019-06-27T18:44:43.456Z,0.10
2019-06-27T18:47:09.477Z,0.20
2019-06-27T18:49:35.376Z,0.20
2019-06-27T18:52:01.401Z,0.10
2019-06-27T18:54:27.494Z,0.17
2019-06-27T18:56:53.488Z,0.10
2019-06-27T18:59:19.389Z,0.10
2019-06-27T19:01:45.817Z,0.27
2019-06-27T19:04:13.636Z,0.20
2019-06-27T19:06:39.523Z,0.10
2019-06-27T19:09:05.973Z,0.30
2019-06-27T19:11:31.986Z,0.30
2019-06-27T19:13:57.852Z,0.27
2019-06-27T19:16:23.914Z,0.27
2019-06-27T19:18:54.219Z,0.20
2019-06-27T19:21:38.754Z,0.20
2019-06-27T19:24:06.628Z,0.23
2019-06-27T19:26:32.744Z,0.20
2019-06-27T19:28:58.820Z,0.23
2019-06-27T19:31:24.773Z,0.10
2019-06-27T19:33:50.799Z,0.20
2019-06-27T19:36:17.155Z,0.10
2019-06-27T19:38:43.173Z,0.20
2019-06-27T19:41:09.170Z,0.20
2019-06-27T19:43:35.322Z,0.30
2019-06-27T19:46:01.347Z,0.30
2019-06-27T19:48:27.460Z,0.20
2019-06-27T19:50:54.877Z,0.23
2019-06-27T19:53:20.842Z,0.20
2019-06-27T19:55:46.852Z,0.17
2019-06-27T19:58:13.116Z,0.20
2019-06-27T20:00:39.031Z,0.40
2019-06-27T20:03:05.047Z,0.20
2019-06-27T20:05:31.249Z,0.30
2019-06-27T20:07:57.139Z,0.40
2019-06-27T20:10:23.255Z,0.37
2019-06-27T20:12:49.558Z,0.37
2019-06-27T20:15:15.571Z,0.20
2019-06-27T20:17:41.454Z,0.27
2019-06-27T20:20:07.913Z,0.20
2019-06-27T20:22:33.984Z,0.20
2019-06-27T20:24:59.881Z,0.30
2019-06-27T20:27:26.047Z,0.30
2019-06-27T20:29:51.965Z,0.20
2019-06-27T20:32:18.157Z,0.20
2019-06-27T20:34:44.310Z,0.30
2019-06-27T20:37:10.303Z,0.30
2019-06-27T20:39:36.244Z,0.30
2019-06-27T20:42:02.564Z,0.20
2019-06-27T20:44:28.553Z,0.30
2019-06-27T20:46:54.561Z,0.30
2019-06-27T20:49:20.660Z,0.30
2019-06-27T20:51:47.070Z,0.10
2019-06-27T20:54:13.201Z,0.20
2019-06-27T20:56:39.191Z,0.30
2019-06-27T20:59:05.202Z,0.30
2019-06-27T21:01:31.808Z,0.20
2019-06-27T21:03:58.452Z,0.30
2019-06-27T21:06:24.493Z,0.27
2019-06-27T21:08:51.869Z,0.20
2019-06-27T21:11:18.088Z,0.30
2019-06-27T21:13:44.127Z,0.30
2019-06-27T21:16:10.266Z,0.20
2019-06-27T21:18:36.432Z,0.30
2019-06-27T21:21:02.463Z,0.20
2019-06-27T21:23:28.365Z,0.40
2019-06-27T21:25:54.379Z,0.30
2019-06-27T21:28:20.309Z,0.20
2019-06-27T21:30:46.313Z,0.20
2019-06-27T21:33:12.386Z,0.30
2019-06-27T21:35:38.419Z,0.30
2019-06-27T21:38:04.431Z,0.30
2019-06-27T21:40:30.722Z,0.20
2019-06-27T21:42:56.765Z,0.30
2019-06-27T21:45:22.853Z,0.40
2019-06-27T21:47:48.870Z,0.33
2019-06-27T21:50:14.977Z,0.20
2019-06-27T21:52:41.117Z,0.30
2019-06-27T21:55:07.384Z,0.30
2019-06-27T21:57:33.394Z,0.50
2019-06-27T21:59:59.523Z,0.30
2019-06-27T22:02:25.693Z,0.23
2019-06-27T22:04:51.606Z,0.30
2019-06-27T22:07:17.520Z,0.23
2019-06-27T22:09:43.841Z,0.87
2019-06-27T22:12:09.857Z,0.40
2019-06-27T22:14:35.958Z,0.40
2019-06-27T22:17:02.091Z,0.30
2019-06-27T22:19:27.980Z,0.30
2019-06-27T22:21:53.993Z,0.30
2019-06-27T22:24:20.053Z,0.33
2019-06-27T22:26:46.182Z,0.47
2019-06-27T22:29:13.208Z,0.40
2019-06-27T22:31:39.250Z,0.40
2019-06-27T22:34:05.153Z,0.50
2019-06-27T22:36:31.158Z,0.90
2019-06-27T22:39:15.570Z,0.53
2019-06-27T22:41:59.974Z,0.30
2019-06-27T22:44:44.438Z,0.47
2019-06-27T22:47:28.931Z,0.40
2019-06-27T22:49:54.930Z,0.20
2019-06-27T22:52:34.561Z,0.40
2019-06-27T22:55:05.372Z,0.30
2019-06-27T22:57:31.291Z,0.30
2019-06-27T22:59:57.197Z,0.37
2019-06-27T23:02:23.342Z,0.33
2019-06-27T23:04:49.360Z,0.40
2019-06-27T23:07:15.264Z,0.40
2019-06-27T23:09:56.001Z,0.30
2019-06-27T23:12:09.431Z,0.30
2019-06-27T23:14:35.365Z,0.40
2019-06-27T23:17:01.559Z,0.30
2019-06-27T23:19:27.453Z,0.30
2019-06-27T23:21:53.479Z,0.30
2019-06-27T23:24:19.572Z,0.40
2019-06-27T23:26:45.701Z,0.30
2019-06-27T23:29:11.693Z,0.30
2019-06-27T23:31:37.726Z,0.40
2019-06-27T23:34:03.730Z,0.30
2019-06-27T23:36:29.818Z,0.40
2019-06-27T23:38:55.853Z,0.20
2019-06-27T23:41:21.754Z,0.37
2019-06-27T23:43:47.776Z,0.40
2019-06-27T23:46:33.498Z,0.20
2019-06-27T23:48:59.498Z,0.40
2019-06-27T23:51:25.563Z,0.30
2019-06-27T23:53:51.735Z,0.30
2019-06-27T23:56:17.644Z,0.27
2019-06-27T23:58:43.568Z,0.30
